sensor_id;sensor_type;location;lat;lon;timestamp;temperature;humidity
34099;DHT22;20374;49.474;10.944;2023-09-30T00:01:01;16.80;99.90
34099;DHT22;20374;49.474;10.944;2023-09-30T00:03:28;16.80;99.90
34099;DHT22;20374;49.474;10.944;2023-09-30T00:05:54;16.80;99.90
34099;DHT22;20374;49.474;10.944;2023-09-30T00:08:20;16.70;99.90
34099;DHT22;20374;49.474;10.944;2023-09-30T00:10:46;16.80;99.90
34099;DHT22;20374;49.474;10.944;2023-09-30T00:13:13;16.70;99.90
34099;DHT22;20374;49.474;10.944;2023-09-30T00:15:39;16.70;99.90
34099;DHT22;20374;49.474;10.944;2023-09-30T00:18:06;16.70;99.90
34099;DHT22;20374;49.474;10.944;2023-09-30T00:20:32;16.70;99.90
34099;DHT22;20374;49.474;10.944;2023-09-30T00:22:58;16.70;99.90
34099;DHT22;20374;49.474;10.944;2023-09-30T00:25:24;16.70;99.90
34099;DHT22;20374;49.474;10.944;2023-09-30T00:27:50;16.60;99.90
34099;DHT22;20374;49.474;10.944;2023-09-30T00:30:16;16.60;99.90
34099;DHT22;20374;49.474;10.944;2023-09-30T00:32:42;16.50;99.90
34099;DHT22;20374;49.474;10.944;2023-09-30T00:35:10;16.60;99.90
34099;DHT22;20374;49.474;10.944;2023-09-30T00:37:38;16.50;99.90
34099;DHT22;20374;49.474;10.944;2023-09-30T00:40:05;16.50;99.90
34099;DHT22;20374;49.474;10.944;2023-09-30T00:42:31;16.50;99.90
34099;DHT22;20374;49.474;10.944;2023-09-30T00:44:57;16.40;99.90
34099;DHT22;20374;49.474;10.944;2023-09-30T00:47:23;16.40;99.90
34099;DHT22;20374;49.474;10.944;2023-09-30T00:49:50;16.50;99.90
34099;DHT22;20374;49.474;10.944;2023-09-30T00:52:17;16.40;99.90
34099;DHT22;20374;49.474;10.944;2023-09-30T00:54:44;16.50;99.90
34099;DHT22;20374;49.474;10.944;2023-09-30T00:57:12;16.50;99.90
34099;DHT22;20374;49.474;10.944;2023-09-30T00:59:39;16.50;99.90
34099;DHT22;20374;49.474;10.944;2023-09-30T01:02:06;16.60;99.90
34099;DHT22;20374;49.474;10.944;2023-09-30T01:04:32;16.70;99.90
34099;DHT22;20374;49.474;10.944;2023-09-30T01:06:59;16.60;99.90
34099;DHT22;20374;49.474;10.944;2023-09-30T01:09:26;16.70;99.90
34099;DHT22;20374;49.474;10.944;2023-09-30T01:11:53;16.80;99.90
34099;DHT22;20374;49.474;10.944;2023-09-30T01:16:51;16.80;99.90
34099;DHT22;20374;49.474;10.944;2023-09-30T01:19:17;16.90;99.90
34099;DHT22;20374;49.474;10.944;2023-09-30T01:21:43;16.90;99.90
34099;DHT22;20374;49.474;10.944;2023-09-30T01:24:14;16.90;99.90
34099;DHT22;20374;49.474;10.944;2023-09-30T01:26:41;16.90;99.90
34099;DHT22;20374;49.474;10.944;2023-09-30T01:29:08;17.00;99.90
34099;DHT22;20374;49.474;10.944;2023-09-30T01:31:37;17.00;99.90
34099;DHT22;20374;49.474;10.944;2023-09-30T01:34:04;17.00;99.90
34099;DHT22;20374;49.474;10.944;2023-09-30T01:36:31;17.00;99.90
34099;DHT22;20374;49.474;10.944;2023-09-30T01:38:57;17.00;99.90
34099;DHT22;20374;49.474;10.944;2023-09-30T01:41:24;17.00;99.90
34099;DHT22;20374;49.474;10.944;2023-09-30T01:43:50;17.00;99.90
34099;DHT22;20374;49.474;10.944;2023-09-30T01:46:16;17.00;99.90
34099;DHT22;20374;49.474;10.944;2023-09-30T01:48:42;17.00;99.90
34099;DHT22;20374;49.474;10.944;2023-09-30T01:51:07;17.00;99.90
34099;DHT22;20374;49.474;10.944;2023-09-30T01:53:33;17.20;99.90
34099;DHT22;20374;49.474;10.944;2023-09-30T01:55:59;17.10;99.90
34099;DHT22;20374;49.474;10.944;2023-09-30T01:58:25;17.10;99.90
34099;DHT22;20374;49.474;10.944;2023-09-30T02:03:33;17.10;99.90
34099;DHT22;20374;49.474;10.944;2023-09-30T02:05:59;17.10;99.90
34099;DHT22;20374;49.474;10.944;2023-09-30T02:08:24;17.00;99.90
34099;DHT22;20374;49.474;10.944;2023-09-30T02:10:51;16.90;99.90
34099;DHT22;20374;49.474;10.944;2023-09-30T02:13:18;16.80;99.90
34099;DHT22;20374;49.474;10.944;2023-09-30T02:15:44;16.60;99.90
34099;DHT22;20374;49.474;10.944;2023-09-30T02:18:10;16.60;99.90
34099;DHT22;20374;49.474;10.944;2023-09-30T02:20:39;16.40;99.90
34099;DHT22;20374;49.474;10.944;2023-09-30T02:23:07;16.30;99.90
34099;DHT22;20374;49.474;10.944;2023-09-30T02:25:33;16.20;99.90
34099;DHT22;20374;49.474;10.944;2023-09-30T02:27:59;16.20;99.90
34099;DHT22;20374;49.474;10.944;2023-09-30T02:30:26;16.10;99.90
34099;DHT22;20374;49.474;10.944;2023-09-30T02:32:53;16.00;99.90
34099;DHT22;20374;49.474;10.944;2023-09-30T02:35:19;16.00;99.90
34099;DHT22;20374;49.474;10.944;2023-09-30T02:37:46;16.00;99.90
34099;DHT22;20374;49.474;10.944;2023-09-30T02:40:12;15.90;99.90
34099;DHT22;20374;49.474;10.944;2023-09-30T02:42:40;15.90;99.90
34099;DHT22;20374;49.474;10.944;2023-09-30T02:45:07;15.90;99.90
34099;DHT22;20374;49.474;10.944;2023-09-30T02:47:34;15.90;99.90
34099;DHT22;20374;49.474;10.944;2023-09-30T02:50:01;15.90;99.90
34099;DHT22;20374;49.474;10.944;2023-09-30T02:52:27;15.80;99.90
34099;DHT22;20374;49.474;10.944;2023-09-30T02:54:57;15.90;99.90
34099;DHT22;20374;49.474;10.944;2023-09-30T02:57:24;15.90;99.90
34099;DHT22;20374;49.474;10.944;2023-09-30T02:59:50;15.80;99.90
34099;DHT22;20374;49.474;10.944;2023-09-30T03:02:20;15.80;99.90
34099;DHT22;20374;49.474;10.944;2023-09-30T03:04:48;15.80;99.90
34099;DHT22;20374;49.474;10.944;2023-09-30T03:07:18;15.80;99.90
34099;DHT22;20374;49.474;10.944;2023-09-30T03:09:45;15.70;99.90
34099;DHT22;20374;49.474;10.944;2023-09-30T03:12:12;15.70;99.90
34099;DHT22;20374;49.474;10.944;2023-09-30T03:14:39;15.60;99.90
34099;DHT22;20374;49.474;10.944;2023-09-30T03:17:05;15.60;99.90
34099;DHT22;20374;49.474;10.944;2023-09-30T03:19:37;15.50;99.90
34099;DHT22;20374;49.474;10.944;2023-09-30T03:22:04;15.40;99.90
34099;DHT22;20374;49.474;10.944;2023-09-30T03:24:31;15.40;99.90
34099;DHT22;20374;49.474;10.944;2023-09-30T03:26:57;15.30;99.90
34099;DHT22;20374;49.474;10.944;2023-09-30T03:29:23;15.30;99.90
34099;DHT22;20374;49.474;10.944;2023-09-30T03:31:49;15.20;99.90
34099;DHT22;20374;49.474;10.944;2023-09-30T03:34:15;15.20;99.90
34099;DHT22;20374;49.474;10.944;2023-09-30T03:36:42;15.20;99.90
34099;DHT22;20374;49.474;10.944;2023-09-30T03:39:08;15.10;99.90
34099;DHT22;20374;49.474;10.944;2023-09-30T03:41:34;15.10;99.90
34099;DHT22;20374;49.474;10.944;2023-09-30T03:44:03;15.10;99.90
34099;DHT22;20374;49.474;10.944;2023-09-30T03:46:29;15.10;99.90
34099;DHT22;20374;49.474;10.944;2023-09-30T03:48:56;15.00;99.90
34099;DHT22;20374;49.474;10.944;2023-09-30T03:51:22;15.00;99.90
34099;DHT22;20374;49.474;10.944;2023-09-30T03:53:51;15.00;99.90
34099;DHT22;20374;49.474;10.944;2023-09-30T03:56:17;14.90;99.90
34099;DHT22;20374;49.474;10.944;2023-09-30T03:58:44;14.90;99.90
34099;DHT22;20374;49.474;10.944;2023-09-30T04:01:10;14.90;99.90
34099;DHT22;20374;49.474;10.944;2023-09-30T04:03:37;14.80;99.90
34099;DHT22;20374;49.474;10.944;2023-09-30T04:06:05;14.80;99.90
34099;DHT22;20374;49.474;10.944;2023-09-30T04:08:33;14.80;99.90
34099;DHT22;20374;49.474;10.944;2023-09-30T04:11:02;14.80;99.90
34099;DHT22;20374;49.474;10.944;2023-09-30T04:13:29;14.70;99.90
34099;DHT22;20374;49.474;10.944;2023-09-30T04:15:58;14.70;99.90
34099;DHT22;20374;49.474;10.944;2023-09-30T04:18:24;14.70;99.90
34099;DHT22;20374;49.474;10.944;2023-09-30T04:20:52;14.70;99.90
34099;DHT22;20374;49.474;10.944;2023-09-30T04:23:18;14.70;99.90
34099;DHT22;20374;49.474;10.944;2023-09-30T04:25:46;14.60;99.90
34099;DHT22;20374;49.474;10.944;2023-09-30T04:28:13;14.60;99.90
34099;DHT22;20374;49.474;10.944;2023-09-30T04:30:40;14.50;99.90
34099;DHT22;20374;49.474;10.944;2023-09-30T04:33:06;14.50;99.90
34099;DHT22;20374;49.474;10.944;2023-09-30T04:35:34;14.40;99.90
34099;DHT22;20374;49.474;10.944;2023-09-30T04:38:01;14.40;99.90
34099;DHT22;20374;49.474;10.944;2023-09-30T04:40:27;14.40;99.90
34099;DHT22;20374;49.474;10.944;2023-09-30T04:42:53;14.40;99.90
34099;DHT22;20374;49.474;10.944;2023-09-30T04:45:25;14.30;99.90
34099;DHT22;20374;49.474;10.944;2023-09-30T04:47:52;14.30;99.90
34099;DHT22;20374;49.474;10.944;2023-09-30T04:50:18;14.30;99.90
34099;DHT22;20374;49.474;10.944;2023-09-30T04:52:48;14.30;99.90
34099;DHT22;20374;49.474;10.944;2023-09-30T04:55:14;14.20;99.90
34099;DHT22;20374;49.474;10.944;2023-09-30T04:57:42;14.30;99.90
34099;DHT22;20374;49.474;10.944;2023-09-30T05:00:16;14.30;99.90
34099;DHT22;20374;49.474;10.944;2023-09-30T05:02:45;14.30;99.90
34099;DHT22;20374;49.474;10.944;2023-09-30T05:05:11;14.30;99.90
34099;DHT22;20374;49.474;10.944;2023-09-30T05:07:37;14.30;99.90
34099;DHT22;20374;49.474;10.944;2023-09-30T05:10:03;14.30;99.90
34099;DHT22;20374;49.474;10.944;2023-09-30T05:12:36;14.30;99.90
34099;DHT22;20374;49.474;10.944;2023-09-30T05:15:03;14.30;99.90
34099;DHT22;20374;49.474;10.944;2023-09-30T05:17:29;14.30;99.90
34099;DHT22;20374;49.474;10.944;2023-09-30T05:19:59;14.30;99.90
34099;DHT22;20374;49.474;10.944;2023-09-30T05:22:24;14.30;99.90
34099;DHT22;20374;49.474;10.944;2023-09-30T05:24:51;14.30;99.90
34099;DHT22;20374;49.474;10.944;2023-09-30T05:27:18;14.20;99.90
34099;DHT22;20374;49.474;10.944;2023-09-30T05:29:44;14.20;99.90
34099;DHT22;20374;49.474;10.944;2023-09-30T05:32:10;14.20;99.90
34099;DHT22;20374;49.474;10.944;2023-09-30T05:34:36;14.20;99.90
34099;DHT22;20374;49.474;10.944;2023-09-30T05:37:04;14.20;99.90
34099;DHT22;20374;49.474;10.944;2023-09-30T05:39:30;14.10;99.90
34099;DHT22;20374;49.474;10.944;2023-09-30T05:41:58;14.10;99.90
34099;DHT22;20374;49.474;10.944;2023-09-30T05:44:24;14.10;99.90
34099;DHT22;20374;49.474;10.944;2023-09-30T05:46:51;14.10;99.90
34099;DHT22;20374;49.474;10.944;2023-09-30T05:49:17;14.10;99.90
34099;DHT22;20374;49.474;10.944;2023-09-30T05:51:44;14.10;99.90
34099;DHT22;20374;49.474;10.944;2023-09-30T05:54:12;14.10;99.90
34099;DHT22;20374;49.474;10.944;2023-09-30T05:56:38;14.10;99.90
34099;DHT22;20374;49.474;10.944;2023-09-30T05:59:05;14.00;99.90
34099;DHT22;20374;49.474;10.944;2023-09-30T06:01:32;14.00;99.90
34099;DHT22;20374;49.474;10.944;2023-09-30T06:03:59;14.00;99.90
34099;DHT22;20374;49.474;10.944;2023-09-30T06:06:26;14.10;99.90
34099;DHT22;20374;49.474;10.944;2023-09-30T06:08:54;14.00;99.90
34099;DHT22;20374;49.474;10.944;2023-09-30T06:11:22;14.00;99.90
34099;DHT22;20374;49.474;10.944;2023-09-30T06:13:54;14.00;99.90
34099;DHT22;20374;49.474;10.944;2023-09-30T06:16:20;14.10;99.90
34099;DHT22;20374;49.474;10.944;2023-09-30T06:18:46;14.10;99.90
34099;DHT22;20374;49.474;10.944;2023-09-30T06:21:15;14.10;99.90
34099;DHT22;20374;49.474;10.944;2023-09-30T06:23:49;14.10;99.90
34099;DHT22;20374;49.474;10.944;2023-09-30T06:26:18;14.10;99.90
34099;DHT22;20374;49.474;10.944;2023-09-30T06:28:44;14.00;99.90
34099;DHT22;20374;49.474;10.944;2023-09-30T06:31:10;14.00;99.90
34099;DHT22;20374;49.474;10.944;2023-09-30T06:33:37;14.00;99.90
34099;DHT22;20374;49.474;10.944;2023-09-30T06:36:11;14.00;99.90
34099;DHT22;20374;49.474;10.944;2023-09-30T06:38:40;14.00;99.90
34099;DHT22;20374;49.474;10.944;2023-09-30T06:41:07;14.00;99.90
34099;DHT22;20374;49.474;10.944;2023-09-30T06:43:34;14.00;99.90
34099;DHT22;20374;49.474;10.944;2023-09-30T06:46:07;14.00;99.90
34099;DHT22;20374;49.474;10.944;2023-09-30T06:48:37;14.10;99.90
34099;DHT22;20374;49.474;10.944;2023-09-30T06:51:03;14.10;99.90
34099;DHT22;20374;49.474;10.944;2023-09-30T06:53:29;14.10;99.90
34099;DHT22;20374;49.474;10.944;2023-09-30T06:55:55;14.20;99.90
34099;DHT22;20374;49.474;10.944;2023-09-30T06:58:21;14.30;99.90
34099;DHT22;20374;49.474;10.944;2023-09-30T07:00:51;14.40;99.90
34099;DHT22;20374;49.474;10.944;2023-09-30T07:03:17;14.40;99.90
34099;DHT22;20374;49.474;10.944;2023-09-30T07:05:45;14.30;99.90
34099;DHT22;20374;49.474;10.944;2023-09-30T07:08:11;14.30;99.90
34099;DHT22;20374;49.474;10.944;2023-09-30T07:10:37;14.30;99.90
34099;DHT22;20374;49.474;10.944;2023-09-30T07:13:04;14.30;99.90
34099;DHT22;20374;49.474;10.944;2023-09-30T07:15:30;14.40;99.90
34099;DHT22;20374;49.474;10.944;2023-09-30T07:17:56;14.40;99.90
34099;DHT22;20374;49.474;10.944;2023-09-30T07:20:22;14.50;99.90
34099;DHT22;20374;49.474;10.944;2023-09-30T07:22:48;14.60;99.90
34099;DHT22;20374;49.474;10.944;2023-09-30T07:25:14;14.80;99.90
34099;DHT22;20374;49.474;10.944;2023-09-30T07:27:44;14.90;99.90
34099;DHT22;20374;49.474;10.944;2023-09-30T07:30:11;14.90;99.90
34099;DHT22;20374;49.474;10.944;2023-09-30T07:32:44;15.00;99.90
34099;DHT22;20374;49.474;10.944;2023-09-30T07:35:12;15.00;99.90
34099;DHT22;20374;49.474;10.944;2023-09-30T07:37:41;15.10;99.90
34099;DHT22;20374;49.474;10.944;2023-09-30T07:40:08;15.10;99.90
34099;DHT22;20374;49.474;10.944;2023-09-30T07:42:34;15.20;99.90
34099;DHT22;20374;49.474;10.944;2023-09-30T07:45:01;15.10;99.90
34099;DHT22;20374;49.474;10.944;2023-09-30T07:47:26;15.10;99.90
34099;DHT22;20374;49.474;10.944;2023-09-30T07:49:52;15.20;99.90
34099;DHT22;20374;49.474;10.944;2023-09-30T07:52:18;15.10;99.90
34099;DHT22;20374;49.474;10.944;2023-09-30T07:54:44;15.10;99.90
34099;DHT22;20374;49.474;10.944;2023-09-30T07:57:10;15.20;99.90
34099;DHT22;20374;49.474;10.944;2023-09-30T07:59:36;15.10;99.90
34099;DHT22;20374;49.474;10.944;2023-09-30T08:02:02;15.20;99.90
34099;DHT22;20374;49.474;10.944;2023-09-30T08:04:31;15.10;99.90
34099;DHT22;20374;49.474;10.944;2023-09-30T08:06:57;15.20;99.90
34099;DHT22;20374;49.474;10.944;2023-09-30T08:09:23;15.30;99.90
34099;DHT22;20374;49.474;10.944;2023-09-30T08:11:50;15.30;99.90
34099;DHT22;20374;49.474;10.944;2023-09-30T08:14:18;15.40;99.90
34099;DHT22;20374;49.474;10.944;2023-09-30T08:16:44;15.50;99.90
34099;DHT22;20374;49.474;10.944;2023-09-30T08:19:10;15.60;99.90
34099;DHT22;20374;49.474;10.944;2023-09-30T08:21:35;15.70;99.90
34099;DHT22;20374;49.474;10.944;2023-09-30T08:24:02;15.80;99.90
34099;DHT22;20374;49.474;10.944;2023-09-30T08:26:28;15.80;99.90
34099;DHT22;20374;49.474;10.944;2023-09-30T08:28:54;15.90;99.90
34099;DHT22;20374;49.474;10.944;2023-09-30T08:31:20;15.90;99.90
34099;DHT22;20374;49.474;10.944;2023-09-30T08:33:47;15.80;99.90
34099;DHT22;20374;49.474;10.944;2023-09-30T08:36:13;16.00;99.90
34099;DHT22;20374;49.474;10.944;2023-09-30T08:38:40;15.90;99.90
34099;DHT22;20374;49.474;10.944;2023-09-30T08:41:06;16.00;99.90
34099;DHT22;20374;49.474;10.944;2023-09-30T08:43:40;16.00;99.90
34099;DHT22;20374;49.474;10.944;2023-09-30T08:46:07;16.10;99.90
34099;DHT22;20374;49.474;10.944;2023-09-30T08:48:33;16.10;99.90
34099;DHT22;20374;49.474;10.944;2023-09-30T08:51:01;16.20;99.90
34099;DHT22;20374;49.474;10.944;2023-09-30T08:53:29;16.40;99.90
34099;DHT22;20374;49.474;10.944;2023-09-30T08:55:56;16.40;99.90
34099;DHT22;20374;49.474;10.944;2023-09-30T08:58:27;16.30;99.90
34099;DHT22;20374;49.474;10.944;2023-09-30T09:00:54;16.40;99.90
34099;DHT22;20374;49.474;10.944;2023-09-30T09:03:23;16.50;99.90
34099;DHT22;20374;49.474;10.944;2023-09-30T09:05:56;16.60;99.90
34099;DHT22;20374;49.474;10.944;2023-09-30T09:08:26;16.70;99.90
34099;DHT22;20374;49.474;10.944;2023-09-30T09:10:59;16.70;99.90
34099;DHT22;20374;49.474;10.944;2023-09-30T09:13:28;16.70;99.90
34099;DHT22;20374;49.474;10.944;2023-09-30T09:16:10;16.80;99.90
34099;DHT22;20374;49.474;10.944;2023-09-30T09:18:37;16.90;99.90
34099;DHT22;20374;49.474;10.944;2023-09-30T09:23:43;17.00;99.90
34099;DHT22;20374;49.474;10.944;2023-09-30T09:26:11;17.10;99.90
34099;DHT22;20374;49.474;10.944;2023-09-30T09:28:38;17.20;99.90
34099;DHT22;20374;49.474;10.944;2023-09-30T09:31:34;17.40;99.90
34099;DHT22;20374;49.474;10.944;2023-09-30T09:34:01;17.20;99.90
34099;DHT22;20374;49.474;10.944;2023-09-30T09:36:45;17.40;99.90
34099;DHT22;20374;49.474;10.944;2023-09-30T09:39:14;17.20;99.90
34099;DHT22;20374;49.474;10.944;2023-09-30T09:41:54;17.10;99.90
34099;DHT22;20374;49.474;10.944;2023-09-30T09:44:23;17.20;99.90
34099;DHT22;20374;49.474;10.944;2023-09-30T09:46:52;17.40;99.90
34099;DHT22;20374;49.474;10.944;2023-09-30T09:49:19;17.50;99.90
34099;DHT22;20374;49.474;10.944;2023-09-30T09:51:46;17.60;99.90
34099;DHT22;20374;49.474;10.944;2023-09-30T09:54:13;17.70;99.90
34099;DHT22;20374;49.474;10.944;2023-09-30T09:56:42;17.70;99.90
34099;DHT22;20374;49.474;10.944;2023-09-30T09:59:09;17.80;99.90
34099;DHT22;20374;49.474;10.944;2023-09-30T10:01:37;17.70;99.90
34099;DHT22;20374;49.474;10.944;2023-09-30T10:04:05;17.70;99.90
34099;DHT22;20374;49.474;10.944;2023-09-30T10:06:32;17.80;99.90
34099;DHT22;20374;49.474;10.944;2023-09-30T10:09:07;17.70;99.90
34099;DHT22;20374;49.474;10.944;2023-09-30T10:11:33;17.70;99.90
34099;DHT22;20374;49.474;10.944;2023-09-30T10:13:59;17.70;99.90
34099;DHT22;20374;49.474;10.944;2023-09-30T10:19:19;17.80;99.90
34099;DHT22;20374;49.474;10.944;2023-09-30T10:24:47;18.10;99.90
34099;DHT22;20374;49.474;10.944;2023-09-30T10:27:33;18.10;99.90
34099;DHT22;20374;49.474;10.944;2023-09-30T10:40:48;18.20;99.90
34099;DHT22;20374;49.474;10.944;2023-09-30T10:43:32;18.30;99.90
34099;DHT22;20374;49.474;10.944;2023-09-30T10:45:58;18.40;99.90
34099;DHT22;20374;49.474;10.944;2023-09-30T10:51:00;18.50;99.90
34099;DHT22;20374;49.474;10.944;2023-09-30T10:53:30;18.40;99.90
34099;DHT22;20374;49.474;10.944;2023-09-30T10:56:00;18.40;99.90
34099;DHT22;20374;49.474;10.944;2023-09-30T10:58:42;18.50;99.90
34099;DHT22;20374;49.474;10.944;2023-09-30T11:01:09;18.60;99.90
34099;DHT22;20374;49.474;10.944;2023-09-30T11:03:35;18.80;99.90
34099;DHT22;20374;49.474;10.944;2023-09-30T11:06:00;19.00;99.90
34099;DHT22;20374;49.474;10.944;2023-09-30T11:08:29;19.20;99.90
34099;DHT22;20374;49.474;10.944;2023-09-30T11:10:58;19.40;99.90
34099;DHT22;20374;49.474;10.944;2023-09-30T11:13:42;19.40;99.90
34099;DHT22;20374;49.474;10.944;2023-09-30T11:16:15;19.70;99.90
34099;DHT22;20374;49.474;10.944;2023-09-30T11:18:41;19.60;99.90
34099;DHT22;20374;49.474;10.944;2023-09-30T11:21:09;19.40;99.90
34099;DHT22;20374;49.474;10.944;2023-09-30T11:23:37;19.40;99.90
34099;DHT22;20374;49.474;10.944;2023-09-30T11:26:03;19.30;99.90
34099;DHT22;20374;49.474;10.944;2023-09-30T11:28:41;19.30;99.90
34099;DHT22;20374;49.474;10.944;2023-09-30T11:31:09;19.10;99.90
34099;DHT22;20374;49.474;10.944;2023-09-30T11:33:55;19.20;99.90
34099;DHT22;20374;49.474;10.944;2023-09-30T11:36:23;19.20;99.90
34099;DHT22;20374;49.474;10.944;2023-09-30T11:38:51;19.20;99.90
34099;DHT22;20374;49.474;10.944;2023-09-30T11:41:18;19.00;99.90
34099;DHT22;20374;49.474;10.944;2023-09-30T11:46:31;19.10;99.90
34099;DHT22;20374;49.474;10.944;2023-09-30T11:49:01;19.20;99.90
34099;DHT22;20374;49.474;10.944;2023-09-30T11:51:28;19.50;99.90
34099;DHT22;20374;49.474;10.944;2023-09-30T11:53:55;19.40;99.90
34099;DHT22;20374;49.474;10.944;2023-09-30T11:56:23;19.40;99.90
34099;DHT22;20374;49.474;10.944;2023-09-30T11:58:55;19.60;99.90
34099;DHT22;20374;49.474;10.944;2023-09-30T12:01:22;19.90;99.90
34099;DHT22;20374;49.474;10.944;2023-09-30T12:03:48;19.90;99.90
34099;DHT22;20374;49.474;10.944;2023-09-30T12:06:14;20.10;99.90
34099;DHT22;20374;49.474;10.944;2023-09-30T12:08:42;20.30;99.60
34099;DHT22;20374;49.474;10.944;2023-09-30T12:11:11;20.50;99.50
34099;DHT22;20374;49.474;10.944;2023-09-30T12:13:40;20.70;99.90
34099;DHT22;20374;49.474;10.944;2023-09-30T12:16:06;20.80;99.80
34099;DHT22;20374;49.474;10.944;2023-09-30T12:18:32;20.80;98.30
34099;DHT22;20374;49.474;10.944;2023-09-30T12:20:58;21.00;98.80
34099;DHT22;20374;49.474;10.944;2023-09-30T12:23:24;21.00;98.50
34099;DHT22;20374;49.474;10.944;2023-09-30T12:25:50;21.10;97.70
34099;DHT22;20374;49.474;10.944;2023-09-30T12:28:16;20.80;97.50
34099;DHT22;20374;49.474;10.944;2023-09-30T12:30:43;20.50;97.60
34099;DHT22;20374;49.474;10.944;2023-09-30T12:33:09;20.40;98.30
34099;DHT22;20374;49.474;10.944;2023-09-30T12:35:39;20.30;98.60
34099;DHT22;20374;49.474;10.944;2023-09-30T12:38:04;20.20;98.10
34099;DHT22;20374;49.474;10.944;2023-09-30T12:40:31;20.30;99.10
34099;DHT22;20374;49.474;10.944;2023-09-30T12:42:56;20.50;99.70
34099;DHT22;20374;49.474;10.944;2023-09-30T12:45:23;20.60;97.60
34099;DHT22;20374;49.474;10.944;2023-09-30T12:47:49;20.60;97.90
34099;DHT22;20374;49.474;10.944;2023-09-30T12:50:18;20.60;97.60
34099;DHT22;20374;49.474;10.944;2023-09-30T12:52:43;20.60;98.90
34099;DHT22;20374;49.474;10.944;2023-09-30T12:55:09;20.80;98.50
34099;DHT22;20374;49.474;10.944;2023-09-30T12:57:36;21.00;97.40
34099;DHT22;20374;49.474;10.944;2023-09-30T13:00:02;21.30;98.00
34099;DHT22;20374;49.474;10.944;2023-09-30T13:02:29;21.50;97.40
34099;DHT22;20374;49.474;10.944;2023-09-30T13:04:55;21.60;96.80
34099;DHT22;20374;49.474;10.944;2023-09-30T13:07:21;21.60;95.50
34099;DHT22;20374;49.474;10.944;2023-09-30T13:09:46;21.90;97.10
34099;DHT22;20374;49.474;10.944;2023-09-30T13:12:12;22.50;97.30
34099;DHT22;20374;49.474;10.944;2023-09-30T13:14:39;22.80;94.50
34099;DHT22;20374;49.474;10.944;2023-09-30T13:17:05;23.20;93.60
34099;DHT22;20374;49.474;10.944;2023-09-30T13:19:31;23.60;93.30
34099;DHT22;20374;49.474;10.944;2023-09-30T13:21:58;23.90;92.10
34099;DHT22;20374;49.474;10.944;2023-09-30T13:24:24;23.90;92.20
34099;DHT22;20374;49.474;10.944;2023-09-30T13:26:50;24.30;93.00
34099;DHT22;20374;49.474;10.944;2023-09-30T13:29:18;24.50;91.30
34099;DHT22;20374;49.474;10.944;2023-09-30T13:31:44;24.80;90.90
34099;DHT22;20374;49.474;10.944;2023-09-30T13:34:10;25.60;90.70
34099;DHT22;20374;49.474;10.944;2023-09-30T13:36:38;26.10;89.60
34099;DHT22;20374;49.474;10.944;2023-09-30T13:39:03;26.50;89.10
34099;DHT22;20374;49.474;10.944;2023-09-30T13:41:35;26.40;87.60
34099;DHT22;20374;49.474;10.944;2023-09-30T13:44:01;26.60;87.00
34099;DHT22;20374;49.474;10.944;2023-09-30T13:46:27;26.70;84.00
34099;DHT22;20374;49.474;10.944;2023-09-30T13:48:54;26.60;86.00
34099;DHT22;20374;49.474;10.944;2023-09-30T13:51:20;26.50;83.50
34099;DHT22;20374;49.474;10.944;2023-09-30T13:53:46;26.50;82.80
34099;DHT22;20374;49.474;10.944;2023-09-30T13:56:11;26.60;83.00
34099;DHT22;20374;49.474;10.944;2023-09-30T13:58:37;26.90;81.80
34099;DHT22;20374;49.474;10.944;2023-09-30T14:01:03;26.70;82.50
34099;DHT22;20374;49.474;10.944;2023-09-30T14:03:29;26.40;80.50
34099;DHT22;20374;49.474;10.944;2023-09-30T14:05:55;25.60;83.70
34099;DHT22;20374;49.474;10.944;2023-09-30T14:08:22;25.30;83.00
34099;DHT22;20374;49.474;10.944;2023-09-30T14:10:49;25.20;85.90
34099;DHT22;20374;49.474;10.944;2023-09-30T14:13:17;24.90;83.20
34099;DHT22;20374;49.474;10.944;2023-09-30T14:15:44;24.80;87.60
34099;DHT22;20374;49.474;10.944;2023-09-30T14:18:12;24.70;88.60
34099;DHT22;20374;49.474;10.944;2023-09-30T14:20:38;24.50;83.60
34099;DHT22;20374;49.474;10.944;2023-09-30T14:23:04;24.10;84.10
34099;DHT22;20374;49.474;10.944;2023-09-30T14:25:30;23.70;86.70
34099;DHT22;20374;49.474;10.944;2023-09-30T14:27:55;23.50;87.60
34099;DHT22;20374;49.474;10.944;2023-09-30T14:30:25;23.40;89.20
34099;DHT22;20374;49.474;10.944;2023-09-30T14:32:51;23.50;89.70
34099;DHT22;20374;49.474;10.944;2023-09-30T14:35:17;23.50;89.00
34099;DHT22;20374;49.474;10.944;2023-09-30T14:37:43;23.20;88.10
34099;DHT22;20374;49.474;10.944;2023-09-30T14:40:09;23.10;88.70
34099;DHT22;20374;49.474;10.944;2023-09-30T14:42:39;23.10;89.90
34099;DHT22;20374;49.474;10.944;2023-09-30T14:45:05;22.90;89.90
34099;DHT22;20374;49.474;10.944;2023-09-30T14:47:31;22.70;90.10
34099;DHT22;20374;49.474;10.944;2023-09-30T14:49:57;22.60;90.70
34099;DHT22;20374;49.474;10.944;2023-09-30T14:52:25;22.30;89.60
34099;DHT22;20374;49.474;10.944;2023-09-30T14:54:51;22.10;90.50
34099;DHT22;20374;49.474;10.944;2023-09-30T14:57:17;22.00;91.00
34099;DHT22;20374;49.474;10.944;2023-09-30T14:59:45;21.80;90.80
34099;DHT22;20374;49.474;10.944;2023-09-30T15:02:11;21.70;91.70
34099;DHT22;20374;49.474;10.944;2023-09-30T15:04:37;21.50;91.20
34099;DHT22;20374;49.474;10.944;2023-09-30T15:07:03;21.50;91.90
34099;DHT22;20374;49.474;10.944;2023-09-30T15:09:29;21.10;91.90
34099;DHT22;20374;49.474;10.944;2023-09-30T15:11:55;20.90;92.30
34099;DHT22;20374;49.474;10.944;2023-09-30T15:14:21;20.80;93.30
34099;DHT22;20374;49.474;10.944;2023-09-30T15:16:47;20.80;93.40
34099;DHT22;20374;49.474;10.944;2023-09-30T15:19:12;20.80;93.20
34099;DHT22;20374;49.474;10.944;2023-09-30T15:21:38;20.70;93.20
34099;DHT22;20374;49.474;10.944;2023-09-30T15:24:04;20.60;93.70
34099;DHT22;20374;49.474;10.944;2023-09-30T15:26:30;20.40;93.70
34099;DHT22;20374;49.474;10.944;2023-09-30T15:29:00;20.20;93.80
34099;DHT22;20374;49.474;10.944;2023-09-30T15:31:27;20.10;93.90
34099;DHT22;20374;49.474;10.944;2023-09-30T15:33:54;19.90;94.10
34099;DHT22;20374;49.474;10.944;2023-09-30T15:36:19;19.80;94.70
34099;DHT22;20374;49.474;10.944;2023-09-30T15:38:46;19.70;95.30
34099;DHT22;20374;49.474;10.944;2023-09-30T15:41:13;19.60;95.20
34099;DHT22;20374;49.474;10.944;2023-09-30T15:43:39;19.50;95.70
34099;DHT22;20374;49.474;10.944;2023-09-30T15:46:04;19.30;96.00